createdAt,value
2024-02-06T00:02:10.805Z,100139.91
2024-02-06T00:05:13.450Z,100137.00
2024-02-06T00:08:15.723Z,100139.91
2024-02-06T00:11:19.321Z,100137.88
2024-02-06T00:14:21.625Z,100142.06
2024-02-06T00:17:24.130Z,100152.31
2024-02-06T00:20:26.387Z,100150.88
2024-02-06T00:23:28.870Z,100142.91
2024-02-06T00:26:31.209Z,100153.75
2024-02-06T00:29:33.719Z,100152.53
2024-02-06T00:32:36.090Z,100148.66
2024-02-06T00:35:39.124Z,100156.69
2024-02-06T00:38:41.348Z,100156.97
2024-02-06T00:41:44.410Z,100160.81
2024-02-06T00:44:46.648Z,100156.38
2024-02-06T00:47:50.852Z,100149.31
2024-02-06T00:50:53.284Z,100157.75
2024-02-06T00:53:55.806Z,100154.16
2024-02-06T00:56:57.955Z,100147.75
2024-02-06T01:00:00.582Z,100140.22
2024-02-06T01:03:03.369Z,100140.31
2024-02-06T01:06:06.062Z,100136.81
2024-02-06T01:09:08.229Z,100133.06
2024-02-06T01:12:11.066Z,100132.37
2024-02-06T01:15:13.443Z,100140.91
2024-02-06T01:18:16.006Z,100134.31
2024-02-06T01:21:18.300Z,100136.69
2024-02-06T01:24:20.816Z,100125.84
2024-02-06T01:27:23.284Z,100128.44
2024-02-06T01:30:25.792Z,100126.56
2024-02-06T01:33:28.185Z,100119.31
2024-02-06T01:36:31.100Z,100120.28
2024-02-06T01:39:33.268Z,100114.22
2024-02-06T01:42:35.998Z,100109.94
2024-02-06T01:45:38.245Z,100107.06
2024-02-06T01:48:40.902Z,100102.94
2024-02-06T01:51:46.761Z,100104.72
2024-02-06T01:54:49.377Z,100100.72
2024-02-06T01:57:52.515Z,100101.13
2024-02-06T02:00:55.109Z,100092.84
2024-02-06T02:03:59.011Z,100099.53
2024-02-06T02:07:01.894Z,100097.53
2024-02-06T02:10:04.850Z,100095.13
2024-02-06T02:13:07.231Z,100095.22
2024-02-06T02:16:09.840Z,100086.59
2024-02-06T02:19:12.241Z,100089.59
2024-02-06T02:22:14.831Z,100094.09
2024-02-06T02:25:17.410Z,100075.97
2024-02-06T02:28:20.647Z,100078.94
2024-02-06T02:31:23.591Z,100079.56
2024-02-06T02:34:26.235Z,100072.78
2024-02-06T02:37:28.579Z,100076.91
2024-02-06T02:40:31.059Z,100072.69
2024-02-06T02:43:33.461Z,100083.66
2024-02-06T02:46:36.088Z,100063.53
2024-02-06T02:49:38.424Z,100066.75
2024-02-06T02:52:40.993Z,100071.44
2024-02-06T02:55:43.373Z,100068.53
2024-02-06T02:58:47.255Z,100059.25
2024-02-06T03:01:49.770Z,100068.97
2024-02-06T03:04:52.472Z,100068.72
2024-02-06T03:07:55.084Z,100065.75
2024-02-06T03:10:57.572Z,100072.53
2024-02-06T03:13:59.814Z,100066.31
2024-02-06T03:17:02.315Z,100068.31
2024-02-06T03:20:06.204Z,100062.34
2024-02-06T03:23:08.808Z,100060.75
2024-02-06T03:26:11.020Z,100058.28
2024-02-06T03:29:13.540Z,100066.75
2024-02-06T03:32:15.741Z,100055.91
2024-02-06T03:35:18.394Z,100058.50
2024-02-06T03:38:22.380Z,100064.06
2024-02-06T03:41:24.808Z,100071.63
2024-02-06T03:44:27.749Z,100068.25
2024-02-06T03:47:30.375Z,100073.63
2024-02-06T03:50:32.582Z,100059.09
2024-02-06T03:53:35.065Z,100053.87
2024-02-06T03:56:37.261Z,100056.09
2024-02-06T03:59:40.912Z,100067.66
2024-02-06T04:02:43.180Z,100053.87
2024-02-06T04:05:46.598Z,100064.75
2024-02-06T04:08:49.706Z,100069.53
2024-02-06T04:11:52.242Z,100081.91
2024-02-06T04:14:54.388Z,100081.41
2024-02-06T04:17:57.012Z,100106.53
2024-02-06T04:20:59.342Z,100122.97
2024-02-06T04:24:02.031Z,100121.16
2024-02-06T04:27:04.763Z,100049.31
2024-02-06T04:30:08.695Z,99966.69
2024-02-06T04:33:10.996Z,100015.16
2024-02-06T04:36:13.619Z,100031.09
2024-02-06T04:39:16.663Z,100019.56
2024-02-06T04:42:19.205Z,100021.81
2024-02-06T04:45:21.370Z,100026.63
2024-02-06T04:48:23.868Z,100030.66
2024-02-06T04:51:26.283Z,100028.91
2024-02-06T04:54:28.779Z,100029.78
2024-02-06T04:57:30.919Z,100029.81
2024-02-06T05:00:34.073Z,100021.72
2024-02-06T05:03:36.485Z,100017.94
2024-02-06T05:06:39.177Z,100021.28
2024-02-06T05:09:41.340Z,100021.47
2024-02-06T05:12:44.192Z,100012.34
2024-02-06T05:15:46.455Z,100013.78
2024-02-06T05:18:49.024Z,100008.06
2024-02-06T05:21:51.755Z,100002.25
2024-02-06T05:24:54.270Z,100001.25
2024-02-06T05:27:58.120Z,100002.16
2024-02-06T05:31:00.742Z,100003.13
2024-02-06T05:34:03.096Z,100014.09
2024-02-06T05:37:05.770Z,100002.13
2024-02-06T05:40:12.713Z,100003.78
2024-02-06T05:43:15.341Z,100002.31
2024-02-06T05:46:17.637Z,100002.84
2024-02-06T05:49:20.264Z,100003.44
2024-02-06T05:52:22.859Z,100001.81
2024-02-06T05:55:27.375Z,99991.66
2024-02-06T05:58:29.745Z,99982.69
2024-02-06T06:01:32.414Z,99991.09
2024-02-06T06:04:35.125Z,99982.56
2024-02-06T06:07:37.548Z,99978.09
2024-02-06T06:10:40.147Z,99980.25
2024-02-06T06:13:42.421Z,99969.69
2024-02-06T06:16:45.057Z,99976.16
2024-02-06T06:19:47.341Z,99970.19
2024-02-06T06:22:49.974Z,99976.78
2024-02-06T06:25:52.267Z,99972.91
2024-02-06T06:28:54.767Z,99973.09
2024-02-06T06:31:57.148Z,99965.53
2024-02-06T06:34:59.706Z,99974.66
2024-02-06T06:38:02.171Z,99966.25
2024-02-06T06:41:04.840Z,99972.28
2024-02-06T06:44:07.319Z,99976.97
2024-02-06T06:47:12.228Z,99980.97
2024-02-06T06:50:14.621Z,99981.25
2024-02-06T06:53:17.466Z,99983.84
2024-02-06T06:56:20.204Z,99978.00
2024-02-06T06:59:22.961Z,99968.47
2024-02-06T07:02:26.892Z,99976.63
2024-02-06T07:05:31.745Z,99969.47
2024-02-06T07:08:34.551Z,99961.28
2024-02-06T07:11:37.782Z,99957.22
2024-02-06T07:14:40.189Z,99964.47
2024-02-06T07:17:42.981Z,99957.34
2024-02-06T07:20:45.734Z,99959.19
2024-02-06T07:23:48.296Z,99965.19
2024-02-06T07:26:50.544Z,99973.16
2024-02-06T07:29:53.151Z,99968.34
2024-02-06T07:32:55.545Z,99956.72
2024-02-06T07:35:58.136Z,99962.06
2024-02-06T07:39:00.955Z,99968.53
2024-02-06T07:42:03.695Z,99972.66
2024-02-06T07:45:06.388Z,99972.41
2024-02-06T07:48:09.267Z,99970.06
2024-02-06T07:51:12.399Z,99967.81
2024-02-06T07:54:14.913Z,99967.72
2024-02-06T07:57:17.089Z,99973.91
2024-02-06T08:00:20.189Z,99976.13
2024-02-06T08:03:22.793Z,99972.88
2024-02-06T08:06:25.135Z,99971.78
2024-02-06T08:09:27.741Z,99980.13
2024-02-06T08:12:29.905Z,99970.09
2024-02-06T08:15:32.390Z,99975.16
2024-02-06T08:18:34.795Z,99972.53
2024-02-06T08:21:37.763Z,99982.84
2024-02-06T08:24:39.935Z,99981.16
2024-02-06T08:27:42.617Z,99985.72
2024-02-06T08:30:49.120Z,99974.72
2024-02-06T08:33:52.458Z,99970.00
2024-02-06T08:36:54.981Z,99974.88
2024-02-06T08:39:58.474Z,99968.50
2024-02-06T08:43:01.031Z,99956.75
2024-02-06T08:46:03.565Z,99946.31
2024-02-06T08:49:06.134Z,99968.78
2024-02-06T08:52:09.505Z,99983.31
2024-02-06T08:55:11.982Z,99973.72
2024-02-06T08:58:14.726Z,99986.53
2024-02-06T09:01:18.173Z,100002.31
2024-02-06T09:04:20.943Z,100016.59
2024-02-06T09:07:27.162Z,99989.31
2024-02-06T09:10:30.512Z,99997.03
2024-02-06T09:13:33.203Z,100014.56
2024-02-06T09:16:35.835Z,100027.69
2024-02-06T09:19:42.068Z,100023.16
2024-02-06T09:22:47.296Z,100031.62
2024-02-06T09:25:51.190Z,100058.38
2024-02-06T09:28:55.090Z,100074.63
2024-02-06T09:31:57.945Z,100108.25
2024-02-06T09:35:01.392Z,100147.03
2024-02-06T09:38:04.158Z,100142.81
2024-02-06T09:41:13.419Z,100156.59
2024-02-06T09:44:17.348Z,100157.50
2024-02-06T09:47:20.026Z,100212.75
2024-02-06T09:50:22.584Z,100186.72
2024-02-06T09:53:30.112Z,100286.72
2024-02-06T09:56:32.368Z,100390.44
2024-02-06T09:59:35.637Z,100441.63
2024-02-06T10:02:42.964Z,100484.94
2024-02-06T10:05:49.664Z,100345.53
2024-02-06T10:08:52.139Z,100370.81
2024-02-06T10:11:56.567Z,100427.59
2024-02-06T10:14:59.052Z,100420.81
2024-02-06T10:18:02.239Z,100462.41
2024-02-06T10:21:04.626Z,100425.00
2024-02-06T10:24:07.400Z,100332.75
2024-02-06T10:27:10.036Z,100312.59
2024-02-06T10:30:12.792Z,100341.50
2024-02-06T10:33:16.449Z,100427.47
2024-02-06T10:36:19.060Z,100522.47
2024-02-06T10:39:21.877Z,100787.78
2024-02-06T10:42:56.896Z,100764.22
2024-02-06T10:45:58.539Z,100676.09
2024-02-06T10:49:04.784Z,100628.16
2024-02-06T10:52:08.737Z,100566.84
2024-02-06T10:55:11.468Z,100484.59
2024-02-06T10:58:18.834Z,100478.88
2024-02-06T11:01:22.795Z,100654.81
2024-02-06T11:04:27.104Z,100719.91
2024-02-06T11:07:34.961Z,100776.59
2024-02-06T11:10:41.211Z,100853.34
2024-02-06T11:13:49.285Z,100925.97
2024-02-06T11:16:56.616Z,100850.41
2024-02-06T11:20:05.667Z,100893.66
2024-02-06T11:23:09.060Z,100923.66
2024-02-06T11:26:12.807Z,100906.88
2024-02-06T11:29:16.266Z,101008.25
2024-02-06T11:32:19.578Z,101056.16
2024-02-06T11:35:29.078Z,100948.66
2024-02-06T11:38:31.706Z,101040.97
2024-02-06T11:41:34.072Z,101049.38
2024-02-06T11:44:36.523Z,101028.03
2024-02-06T11:47:40.310Z,101029.78
2024-02-06T11:50:45.001Z,101103.12
2024-02-06T11:53:47.407Z,101106.06
2024-02-06T11:56:51.242Z,101040.84
2024-02-06T11:59:55.804Z,101080.72
2024-02-06T12:03:01.685Z,101105.06
2024-02-06T12:15:32.654Z,100902.09
2024-02-06T12:18:35.237Z,100820.75
2024-02-06T12:21:37.714Z,100700.22
2024-02-06T12:27:57.809Z,100477.13
2024-02-06T12:31:01.871Z,100348.97
2024-02-06T12:34:08.368Z,100260.44
2024-02-06T12:37:14.156Z,100187.56
2024-02-06T12:40:20.573Z,100165.75
2024-02-06T12:43:23.288Z,100124.22
2024-02-06T12:46:25.774Z,100115.94
2024-02-06T12:49:28.948Z,100104.28
2024-02-06T12:58:41.543Z,100032.47
2024-02-06T13:01:44.442Z,100035.50
2024-02-06T13:04:47.019Z,100015.19
2024-02-06T13:07:49.746Z,100014.41
2024-02-06T13:10:52.204Z,100011.44
2024-02-06T13:13:56.666Z,99982.09
2024-02-06T13:17:00.078Z,99962.56
2024-02-06T13:20:11.541Z,99930.53
2024-02-06T13:23:17.463Z,99956.31
2024-02-06T13:26:23.384Z,99991.53
2024-02-06T13:29:26.738Z,99994.34
2024-02-06T13:32:29.358Z,99995.81
2024-02-06T13:35:31.614Z,100023.47
2024-02-06T13:38:34.340Z,100003.28
2024-02-06T13:41:38.330Z,100048.00
2024-02-06T13:44:41.759Z,100060.97
2024-02-06T13:47:46.824Z,100057.22
2024-02-06T13:50:49.577Z,100048.19
2024-02-06T13:53:51.878Z,100031.38
2024-02-06T13:56:55.919Z,100006.75
2024-02-06T13:59:58.218Z,99980.25
2024-02-06T14:03:00.714Z,99958.13
2024-02-06T14:06:03.993Z,99942.19
2024-02-06T14:09:06.420Z,99932.47
2024-02-06T14:12:09.461Z,99908.63
2024-02-06T14:15:11.611Z,99905.69
2024-02-06T14:18:14.081Z,99926.47
2024-02-06T14:21:16.421Z,99899.97
2024-02-06T14:24:19.091Z,99927.88
2024-02-06T14:27:23.105Z,99931.19
2024-02-06T14:30:25.758Z,99913.25
2024-02-06T14:33:28.139Z,99947.16
2024-02-06T14:36:31.879Z,99953.06
2024-02-06T14:39:34.273Z,99958.22
2024-02-06T14:42:37.272Z,99936.00
2024-02-06T14:45:39.532Z,99910.41
2024-02-06T14:48:42.430Z,99916.31
2024-02-06T14:51:44.692Z,99915.00
2024-02-06T14:54:47.178Z,99916.09
2024-02-06T14:57:49.401Z,99921.56
2024-02-06T15:00:52.083Z,99901.06
2024-02-06T15:03:57.232Z,99882.31
2024-02-06T15:07:00.180Z,99891.12
2024-02-06T15:10:02.768Z,99869.00
2024-02-06T15:13:05.797Z,99845.09
2024-02-06T15:16:08.546Z,99861.28
2024-02-06T15:19:11.274Z,99905.59
2024-02-06T15:22:13.968Z,99882.44
2024-02-06T15:25:16.752Z,99874.13
2024-02-06T15:28:18.983Z,99868.59
2024-02-06T15:31:21.688Z,99873.44
2024-02-06T15:34:26.617Z,99880.91
2024-02-06T15:37:29.202Z,99873.38
2024-02-06T15:40:31.616Z,99857.13
2024-02-06T15:43:34.282Z,99848.97
2024-02-06T15:46:36.538Z,99847.56
2024-02-06T15:49:39.215Z,99844.00
2024-02-06T15:52:42.281Z,99841.28
2024-02-06T15:55:44.988Z,99844.94
2024-02-06T15:58:47.393Z,99835.75
2024-02-06T16:01:50.290Z,99836.41
2024-02-06T16:04:53.041Z,99822.72
2024-02-06T16:07:55.412Z,99808.31
2024-02-06T16:10:58.097Z,99800.09
2024-02-06T16:14:00.449Z,99784.91
2024-02-06T16:17:04.569Z,99774.78
2024-02-06T16:20:10.870Z,99769.38
2024-02-06T16:23:13.501Z,99782.69
2024-02-06T16:26:16.993Z,99784.94
2024-02-06T16:29:19.549Z,99753.84
2024-02-06T16:32:21.738Z,99762.97
2024-02-06T16:35:24.416Z,99778.50
2024-02-06T16:38:26.882Z,99780.81
2024-02-06T16:41:31.017Z,99776.28
2024-02-06T16:44:33.974Z,99772.00
2024-02-06T16:47:36.612Z,99780.53
2024-02-06T16:50:38.927Z,99777.12
2024-02-06T16:53:43.197Z,99794.56
2024-02-06T16:56:45.396Z,99786.28
2024-02-06T16:59:48.385Z,99784.53
2024-02-06T17:02:50.588Z,99778.53
2024-02-06T17:05:53.501Z,99772.03
